Time;durP1;ratioP1;P1;durP2;ratioP2;P2;SDS_P1;SDS_P2;PMS_P1;PMS_P2;Temp;Humidity;BMP_temperature;BMP_pressure;BME280_temperature;BME280_humidity;BME280_pressure;Samples;Min_cycle;Max_cycle;Signal;HPM_P1;HPM_P2
2021/10/27 00:00:26;;;;;;;;;;;;;;;18.05;64.00;100485.44;2079576;28;20024;-60
2021/10/27 00:01:26;;;;;;;;;;;;;;;18.05;64.07;100477.25;2086848;28;19915;-61
2021/10/27 00:02:27;;;;;;;;;;;;;;;18.05;63.89;100474.53;2084350;28;19944;-60
2021/10/27 00:03:27;;;;;;;;;;;;;;;18.05;63.89;100479.97;2083020;28;19954;-60
2021/10/27 00:04:27;;;;;;;;;;;;;;;18.04;63.87;100472.81;2085707;28;19916;-61
2021/10/27 00:05:31;;;;;;;;;;;;;;;18.05;63.86;100472.66;2083842;28;19936;-61
2021/10/27 00:06:31;;;;;;;;;;;;;;;18.04;63.93;100465.47;2084387;28;19920;-62
2021/10/27 00:07:32;;;;;;;;;;;;;;;18.05;64.06;100463.63;2086680;28;19963;-62
2021/10/27 00:08:32;;;;;;;;;;;;;;;18.04;63.86;100470.09;2082681;28;19955;-61
2021/10/27 00:09:33;;;;;;;;;;;;;;;18.05;64.00;100469.06;2085923;28;20416;-61
2021/10/27 00:10:35;;;;;;;;;;;;;;;18.04;63.94;100464.63;2082848;28;20286;-61
2021/10/27 00:11:36;;;;;;;;;;;;;;;18.05;63.83;100471.81;2083961;28;19917;-61
2021/10/27 00:12:36;;;;;;;;;;;;;;;18.03;64.04;100471.94;2085549;28;20414;-61
2021/10/27 00:13:37;;;;;;;;;;;;;;;18.04;63.90;100470.09;2084733;28;19951;-61
2021/10/27 00:14:38;;;;;;;;;;;;;;;18.05;63.96;100474.53;2085293;28;19927;-61
2021/10/27 00:15:38;;;;;;;;;;;;;;;18.03;63.95;100465.59;2084890;28;20003;-60
2021/10/27 00:16:38;;;;;;;;;;;;;;;18.04;63.94;100475.53;2082486;28;19916;-61
2021/10/27 00:17:39;;;;;;;;;;;;;;;18.03;63.78;100463.78;2086575;28;19924;-61
2021/10/27 00:18:39;;;;;;;;;;;;;;;18.04;63.81;100467.34;2083938;28;20437;-61
2021/10/27 00:19:40;;;;;;;;;;;;;;;18.03;63.88;100463.78;2084794;28;20391;-61
2021/10/27 00:20:40;;;;;;;;;;;;;;;18.02;63.81;100462.03;2086254;28;19956;-61
2021/10/27 00:21:40;;;;;;;;;;;;;;;18.03;63.82;100462.88;2084118;28;19919;-61
2021/10/27 00:22:41;;;;;;;;;;;;;;;18.02;63.65;100466.63;2084788;28;19921;-61
2021/10/27 00:23:41;;;;;;;;;;;;;;;18.02;63.90;100464.75;2084046;28;20339;-61
2021/10/27 00:24:41;;;;;;;;;;;;;;;18.03;63.81;100466.50;2082054;28;20042;-61
2021/10/27 00:25:42;;;;;;;;;;;;;;;18.03;63.84;100460.16;2085846;28;19917;-61
2021/10/27 00:26:42;;;;;;;;;;;;;;;18.02;63.83;100467.47;2082365;28;19912;-61
2021/10/27 00:27:42;;;;;;;;;;;;;;;18.02;63.81;100472.06;2085311;28;20039;-61
2021/10/27 00:28:43;;;;;;;;;;;;;;;18.02;63.74;100472.94;2079741;28;19916;-61
2021/10/27 00:29:43;;;;;;;;;;;;;;;18.03;63.65;100471.06;2085438;28;19920;-61
2021/10/27 00:30:44;;;;;;;;;;;;;;;18.02;63.82;100469.34;2085153;28;19912;-61
2021/10/27 00:31:44;;;;;;;;;;;;;;;18.02;63.57;100464.75;2077326;28;19955;-62
2021/10/27 00:32:45;;;;;;;;;;;;;;;18.02;63.71;100463.91;2085610;28;19928;-61
2021/10/27 00:33:45;;;;;;;;;;;;;;;18.02;63.71;100463.91;2078870;28;19913;-61
2021/10/27 00:34:45;;;;;;;;;;;;;;;18.02;63.67;100461.16;2075428;28;19923;-61
2021/10/27 00:35:46;;;;;;;;;;;;;;;18.00;63.76;100453.97;2083767;28;19927;-61
2021/10/27 00:36:46;;;;;;;;;;;;;;;18.00;63.64;100451.22;2085090;28;20382;-61
2021/10/27 00:37:46;;;;;;;;;;;;;;;18.00;63.74;100448.50;2085395;28;20466;-61
2021/10/27 00:38:47;;;;;;;;;;;;;;;18.01;63.81;100452.13;2082953;28;19991;-61
2021/10/27 00:39:48;;;;;;;;;;;;;;;18.00;63.80;100453.97;2086337;28;20670;-61
2021/10/27 00:40:48;;;;;;;;;;;;;;;18.01;63.65;100446.66;2084836;28;20606;-61
2021/10/27 00:41:48;;;;;;;;;;;;;;;18.01;63.73;100443.94;2086236;28;19917;-61
2021/10/27 00:42:49;;;;;;;;;;;;;;;18.01;63.68;100441.22;2074816;28;20289;-61
2021/10/27 00:43:51;;;;;;;;;;;;;;;18.00;63.65;100445.78;2069402;28;20366;-61
2021/10/27 00:44:52;;;;;;;;;;;;;;;18.00;63.72;100448.50;2075535;28;19923;-61
2021/10/27 00:45:52;;;;;;;;;;;;;;;18.00;63.68;100456.69;2085492;28;19946;-61
2021/10/27 00:46:59;;;;;;;;;;;;;;;18.00;63.42;100456.69;2080883;28;20088;-61
2021/10/27 00:47:59;;;;;;;;;;;;;;;18.00;63.71;100459.41;2082473;28;19913;-61
2021/10/27 00:48:59;;;;;;;;;;;;;;;18.00;63.45;100453.97;2084709;28;19923;-62
2021/10/27 00:50:00;;;;;;;;;;;;;;;18.01;63.69;100460.31;2085760;28;19920;-61
2021/10/27 00:51:00;;;;;;;;;;;;;;;17.99;63.63;100457.69;2084199;28;19916;-62
2021/10/27 00:52:02;;;;;;;;;;;;;;;18.00;63.52;100461.28;2079501;28;19912;-61
2021/10/27 00:53:03;;;;;;;;;;;;;;;18.00;63.60;100462.16;2083532;28;19955;-61
2021/10/27 00:54:03;;;;;;;;;;;;;;;17.99;63.57;100467.75;2082428;28;20701;-61
2021/10/27 00:55:04;;;;;;;;;;;;;;;17.98;63.54;100466.91;2087225;28;19908;-61
2021/10/27 00:56:05;;;;;;;;;;;;;;;17.99;63.40;100465.88;2089011;28;19912;-61
2021/10/27 00:57:06;;;;;;;;;;;;;;;17.98;63.38;100461.44;2074614;28;19909;-61
2021/10/27 00:58:06;;;;;;;;;;;;;;;17.97;63.42;100459.69;2072359;28;20271;-62
2021/10/27 00:59:07;;;;;;;;;;;;;;;17.99;63.59;100462.28;2084952;28;20406;-61
2021/10/27 01:00:08;;;;;;;;;;;;;;;17.99;63.59;100457.69;2082243;28;20104;-61
2021/10/27 01:01:08;;;;;;;;;;;;;;;17.97;63.41;100454.25;2081756;28;20263;-61
2021/10/27 01:02:09;;;;;;;;;;;;;;;17.98;63.41;100458.72;2079968;28;19920;-61
2021/10/27 01:03:10;;;;;;;;;;;;;;;17.98;63.61;100455.97;2084979;28;19920;-61
2021/10/27 01:04:10;;;;;;;;;;;;;;;17.97;63.28;100448.78;2084895;28;19916;-61
2021/10/27 01:05:12;;;;;;;;;;;;;;;17.98;63.33;100450.53;2081608;28;20330;-61
2021/10/27 01:06:13;;;;;;;;;;;;;;;17.97;63.38;100448.78;2080077;28;20654;-61
2021/10/27 01:07:13;;;;;;;;;;;;;;;17.97;63.53;100443.31;2085490;28;20275;-61
2021/10/27 01:08:13;;;;;;;;;;;;;;;17.98;63.54;100452.38;2084875;28;19916;-61
2021/10/27 01:09:14;;;;;;;;;;;;;;;17.97;63.44;100447.94;2082956;28;21294;-61
2021/10/27 01:10:14;;;;;;;;;;;;;;;17.96;63.50;100452.53;2076260;28;19966;-61
2021/10/27 01:11:15;;;;;;;;;;;;;;;17.97;63.37;100446.06;2071558;28;19917;-61
2021/10/27 01:12:16;;;;;;;;;;;;;;;17.97;63.34;100442.47;2082693;28;19916;-61
2021/10/27 01:13:16;;;;;;;;;;;;;;;17.96;63.22;100435.28;2082160;28;19954;-61
2021/10/27 01:14:16;;;;;;;;;;;;;;;17.97;63.22;100439.75;2082866;28;19955;-61
2021/10/27 01:15:18;;;;;;;;;;;;;;;17.97;63.18;100445.19;2083560;28;20694;-61
2021/10/27 01:16:19;;;;;;;;;;;;;;;17.95;63.28;100445.31;2080315;28;19935;-61
2021/10/27 01:17:19;;;;;;;;;;;;;;;17.96;63.43;100438.88;2081911;28;19935;-59
2021/10/27 01:18:19;;;;;;;;;;;;;;;17.96;63.40;100441.59;2085051;28;19928;-59
2021/10/27 01:19:20;;;;;;;;;;;;;;;17.96;63.30;100447.06;2085427;28;19924;-59
2021/10/27 01:20:20;;;;;;;;;;;;;;;17.95;63.23;100439.88;2084858;28;19986;-60
2021/10/27 01:21:21;;;;;;;;;;;;;;;17.96;63.45;100441.59;2084827;28;19916;-60
2021/10/27 01:22:25;;;;;;;;;;;;;;;17.97;63.17;100447.94;2083299;28;19951;-59
2021/10/27 01:23:25;;;;;;;;;;;;;;;17.96;63.40;100444.34;2076395;28;20279;-59
2021/10/27 01:24:25;;;;;;;;;;;;;;;17.95;63.37;100448.03;2075059;28;20432;-59
2021/10/27 01:25:25;;;;;;;;;;;;;;;17.95;63.30;100448.03;2081372;28;20667;-61
2021/10/27 01:26:27;;;;;;;;;;;;;;;17.95;63.34;100445.31;2084345;28;20336;-60
2021/10/27 01:27:27;;;;;;;;;;;;;;;17.96;63.14;100444.34;2079803;28;19916;-60
2021/10/27 01:28:28;;;;;;;;;;;;;;;17.95;63.34;100450.78;2085973;28;19959;-60
2021/10/27 01:29:28;;;;;;;;;;;;;;;17.95;63.40;100442.59;2078135;28;19970;-60
2021/10/27 01:30:28;;;;;;;;;;;;;;;17.95;63.19;100448.03;2081049;28;19940;-59
2021/10/27 01:31:29;;;;;;;;;;;;;;;17.94;63.32;100449.06;2084494;28;19999;-59
2021/10/27 01:32:31;;;;;;;;;;;;;;;17.95;63.19;100450.78;2079838;28;19923;-60
2021/10/27 01:33:32;;;;;;;;;;;;;;;17.95;63.19;100442.59;2082277;28;20011;-60
2021/10/27 01:34:33;;;;;;;;;;;;;;;17.95;63.10;100442.59;2077487;28;19916;-60
2021/10/27 01:35:33;;;;;;;;;;;;;;;17.95;63.10;100444.47;2073369;28;20004;-60
2021/10/27 01:36:34;;;;;;;;;;;;;;;17.95;63.09;100442.59;2075339;28;20896;-60
2021/10/27 01:37:35;;;;;;;;;;;;;;;17.95;63.12;100444.47;2087043;28;19931;-60
2021/10/27 01:38:36;;;;;;;;;;;;;;;17.93;63.20;100439.16;2085770;28;19962;-60
2021/10/27 01:39:36;;;;;;;;;;;;;;;17.95;63.02;100444.47;2084674;28;20671;-60
2021/10/27 01:40:36;;;;;;;;;;;;;;;17.94;63.00;100440.88;2075297;28;20631;-60
2021/10/27 01:41:37;;;;;;;;;;;;;;;17.94;63.14;100438.16;2074725;28;19913;-60
2021/10/27 01:42:37;;;;;;;;;;;;;;;17.94;63.25;100438.16;2083574;28;19966;-60
2021/10/27 01:43:47;;;;;;;;;;;;;;;17.93;62.98;100430.97;2084350;28;19916;-60
2021/10/27 01:44:47;;;;;;;;;;;;;;;17.94;63.16;100434.56;2074810;28;19916;-60
2021/10/27 01:45:50;;;;;;;;;;;;;;;17.93;63.00;100439.16;2075212;28;19917;-61
2021/10/27 01:46:51;;;;;;;;;;;;;;;17.94;63.08;100440.03;2085408;28;19966;-60
2021/10/27 01:47:51;;;;;;;;;;;;;;;17.94;63.17;100440.03;2090715;28;19966;-60
2021/10/27 01:48:51;;;;;;;;;;;;;;;17.93;63.11;100441.88;2085129;28;19923;-60
2021/10/27 01:49:52;;;;;;;;;;;;;;;17.92;63.12;100429.22;2078259;28;20008;-60
2021/10/27 01:50:52;;;;;;;;;;;;;;;17.93;62.98;100436.44;2084295;28;19919;-60
2021/10/27 01:51:52;;;;;;;;;;;;;;;17.93;62.98;100430.09;2078907;28;20297;-61
2021/10/27 01:52:53;;;;;;;;;;;;;;;17.93;63.00;100432.81;2084258;28;19919;-60
2021/10/27 01:53:54;;;;;;;;;;;;;;;17.92;63.13;100431.97;2084792;28;20880;-60
2021/10/27 01:54:54;;;;;;;;;;;;;;;17.92;63.00;100434.69;2077576;28;19928;-60
2021/10/27 01:55:56;;;;;;;;;;;;;;;17.92;62.97;100434.69;2082829;28;19977;-59
2021/10/27 01:56:56;;;;;;;;;;;;;;;17.92;63.07;100434.69;2081197;28;20345;-60
2021/10/27 01:57:56;;;;;;;;;;;;;;;17.93;63.02;100435.53;2085662;28;19921;-60
2021/10/27 01:58:57;;;;;;;;;;;;;;;17.92;62.99;100440.13;2084225;28;19908;-60
2021/10/27 01:59:57;;;;;;;;;;;;;;;17.92;63.04;100440.13;2079925;28;19936;-60
2021/10/27 02:00:57;;;;;;;;;;;;;;;17.91;63.00;100435.69;2084222;28;19917;-61
2021/10/27 02:01:57;;;;;;;;;;;;;;;17.91;63.13;100443.88;2081498;28;19916;-60
2021/10/27 02:02:58;;;;;;;;;;;;;;;17.93;63.15;100441.00;2080494;28;20388;-61
2021/10/27 02:03:58;;;;;;;;;;;;;;;17.91;63.09;100432.97;2085681;28;19952;-60
2021/10/27 02:04:58;;;;;;;;;;;;;;;17.91;63.01;100432.97;2081045;28;19922;-60
2021/10/27 02:05:59;;;;;;;;;;;;;;;17.91;62.88;100432.97;2083671;28;19971;-60
2021/10/27 02:07:00;;;;;;;;;;;;;;;17.91;62.94;100432.97;2083699;28;20407;-60
2021/10/27 02:08:00;;;;;;;;;;;;;;;17.92;62.83;100439.28;2083443;28;20401;-60
2021/10/27 02:09:01;;;;;;;;;;;;;;;17.91;62.99;100435.69;2085744;28;20309;-60
2021/10/27 02:10:04;;;;;;;;;;;;;;;17.90;62.97;100428.50;2084092;28;19951;-61
2021/10/27 02:11:05;;;;;;;;;;;;;;;17.91;62.97;100426.66;2085227;28;19925;-61
2021/10/27 02:12:07;;;;;;;;;;;;;;;17.91;62.81;100430.25;2085256;28;19964;-61
2021/10/27 02:13:07;;;;;;;;;;;;;;;17.91;62.88;100427.50;2086005;28;19916;-60
2021/10/27 02:14:07;;;;;;;;;;;;;;;17.91;63.11;100421.19;2082164;28;20608;-60
2021/10/27 02:15:11;;;;;;;;;;;;;;;17.90;62.80;100419.44;2084591;28;19923;-60
2021/10/27 02:16:11;;;;;;;;;;;;;;;17.90;63.10;100419.44;2084412;28;20529;-61
2021/10/27 02:17:12;;;;;;;;;;;;;;;17.89;63.04;100421.31;2080244;28;19917;-61
2021/10/27 02:18:12;;;;;;;;;;;;;;;17.90;62.90;100420.31;2082206;28;20008;-61
2021/10/27 02:19:13;;;;;;;;;;;;;;;17.90;62.80;100423.03;2083114;28;19916;-61
2021/10/27 02:20:14;;;;;;;;;;;;;;;17.90;62.76;100420.31;2081772;28;19921;-61
2021/10/27 02:21:14;;;;;;;;;;;;;;;17.90;62.82;100424.91;2081164;28;19927;-60
2021/10/27 02:22:14;;;;;;;;;;;;;;;17.90;63.08;100424.91;2083901;28;19920;-61
2021/10/27 02:23:15;;;;;;;;;;;;;;;17.89;63.02;100423.19;2082062;28;20015;-61
2021/10/27 02:24:15;;;;;;;;;;;;;;;17.89;62.94;100426.78;2077209;28;19917;-60
2021/10/27 02:25:15;;;;;;;;;;;;;;;17.89;63.00;100424.06;2083074;28;19916;-60
2021/10/27 02:26:16;;;;;;;;;;;;;;;17.89;62.94;100428.66;2084532;28;19917;-61
2021/10/27 02:27:16;;;;;;;;;;;;;;;17.90;62.79;100427.63;2084288;28;19920;-60
2021/10/27 02:28:16;;;;;;;;;;;;;;;17.89;62.76;100424.06;2082183;28;19917;-61
2021/10/27 02:29:17;;;;;;;;;;;;;;;17.89;62.99;100420.47;2077881;28;20338;-61
2021/10/27 02:30:17;;;;;;;;;;;;;;;17.89;62.68;100424.06;2079593;28;20569;-61
2021/10/27 02:31:17;;;;;;;;;;;;;;;17.89;62.83;100424.06;2080704;28;19989;-61
2021/10/27 02:32:18;;;;;;;;;;;;;;;17.88;62.84;100419.56;2084840;28;19923;-61
2021/10/27 02:33:19;;;;;;;;;;;;;;;17.88;62.65;100416.84;2080015;28;20015;-61
2021/10/27 02:34:19;;;;;;;;;;;;;;;17.88;62.82;100418.72;2079523;28;19920;-61
2021/10/27 02:35:19;;;;;;;;;;;;;;;17.88;62.67;100416.84;2083781;28;19928;-60
2021/10/27 02:36:20;;;;;;;;;;;;;;;17.88;62.61;100416.84;2082931;28;20413;-61
2021/10/27 02:37:20;;;;;;;;;;;;;;;17.88;62.63;100414.13;2085272;28;19917;-60
2021/10/27 02:38:21;;;;;;;;;;;;;;;17.87;62.65;100409.69;2083548;28;20418;-60
2021/10/27 02:39:21;;;;;;;;;;;;;;;17.88;62.73;100414.13;2085833;28;20422;-60
2021/10/27 02:40:21;;;;;;;;;;;;;;;17.88;62.69;100410.53;2077693;28;19984;-61
2021/10/27 02:41:22;;;;;;;;;;;;;;;17.88;62.68;100416.84;2078213;28;19950;-61
2021/10/27 02:42:22;;;;;;;;;;;;;;;17.88;62.76;100411.41;2085501;28;19909;-61
2021/10/27 02:43:22;;;;;;;;;;;;;;;17.87;62.74;100415.13;2082776;28;19959;-60
2021/10/27 02:44:23;;;;;;;;;;;;;;;17.87;62.76;100408.81;2085326;28;19917;-61
2021/10/27 02:45:23;;;;;;;;;;;;;;;17.87;62.62;100417.84;2083213;28;20003;-60
2021/10/27 02:46:23;;;;;;;;;;;;;;;17.87;62.51;100409.69;2081023;28;19917;-60
2021/10/27 02:47:24;;;;;;;;;;;;;;;17.87;62.86;100415.13;2083069;28;20032;-60
2021/10/27 02:48:24;;;;;;;;;;;;;;;17.87;62.65;100409.69;2083249;28;19924;-61
2021/10/27 02:49:24;;;;;;;;;;;;;;;17.87;62.61;100409.69;2085520;28;19966;-61
2021/10/27 02:50:25;;;;;;;;;;;;;;;17.86;62.81;100405.25;2083111;28;19916;-60
2021/10/27 02:51:25;;;;;;;;;;;;;;;17.86;62.68;100405.25;2080889;28;19955;-60
2021/10/27 02:52:25;;;;;;;;;;;;;;;17.87;62.60;100408.81;2076376;28;19912;-61
2021/10/27 02:53:25;;;;;;;;;;;;;;;17.87;62.77;100406.09;2082605;28;19916;-61
2021/10/27 02:54:26;;;;;;;;;;;;;;;17.86;62.64;100407.97;2085605;28;20387;-60
2021/10/27 02:55:29;;;;;;;;;;;;;;;17.87;62.77;100411.56;2083396;28;20376;-61
2021/10/27 02:56:30;;;;;;;;;;;;;;;17.86;62.76;100407.97;2078487;28;19917;-61
2021/10/27 02:57:30;;;;;;;;;;;;;;;17.86;62.70;100410.69;2083565;28;19939;-61
2021/10/27 02:58:31;;;;;;;;;;;;;;;17.85;62.70;100411.66;2080164;28;19916;-61
2021/10/27 02:59:32;;;;;;;;;;;;;;;17.86;62.59;100407.97;2085139;28;20409;-61
2021/10/27 03:00:32;;;;;;;;;;;;;;;17.85;62.63;100406.22;2081924;28;20551;-61
2021/10/27 03:01:32;;;;;;;;;;;;;;;17.87;62.75;100408.81;2082372;28;21155;-60
2021/10/27 03:02:33;;;;;;;;;;;;;;;17.86;62.56;100399.78;2086020;28;19916;-60
2021/10/27 03:03:34;;;;;;;;;;;;;;;17.86;62.38;100402.50;2082937;28;19916;-60
2021/10/27 03:04:35;;;;;;;;;;;;;;;17.85;62.51;100406.22;2084908;28;20118;-60
2021/10/27 03:05:35;;;;;;;;;;;;;;;17.86;62.55;100407.06;2081036;28;20007;-60
2021/10/27 03:06:36;;;;;;;;;;;;;;;17.86;62.51;100401.63;2077481;28;19920;-61
2021/10/27 03:07:36;;;;;;;;;;;;;;;17.85;62.70;100406.22;2083286;28;19961;-61
2021/10/27 03:08:36;;;;;;;;;;;;;;;17.85;62.42;100403.50;2079256;28;20815;-60
2021/10/27 03:09:36;;;;;;;;;;;;;;;17.86;62.54;100401.63;2083295;28;19970;-60
2021/10/27 03:10:37;;;;;;;;;;;;;;;17.85;62.31;100405.34;2088264;28;19957;-61
2021/10/27 03:11:37;;;;;;;;;;;;;;;17.86;62.46;100401.63;2086176;28;19911;-60
2021/10/27 03:12:37;;;;;;;;;;;;;;;17.85;62.59;100411.66;2084742;28;19912;-61
2021/10/27 03:13:38;;;;;;;;;;;;;;;17.85;62.63;100411.66;2082967;28;20384;-61
2021/10/27 03:14:38;;;;;;;;;;;;;;;17.86;62.41;100407.06;2084053;28;19916;-61
2021/10/27 03:15:38;;;;;;;;;;;;;;;17.85;62.44;100406.22;2082654;28;20294;-61
2021/10/27 03:16:38;;;;;;;;;;;;;;;17.84;62.52;100404.50;2083277;28;19926;-61
2021/10/27 03:17:39;;;;;;;;;;;;;;;17.85;62.65;100405.34;2069831;28;19917;-60
2021/10/27 03:18:39;;;;;;;;;;;;;;;17.84;62.37;100411.81;2074398;28;19921;-61
2021/10/27 03:19:39;;;;;;;;;;;;;;;17.85;62.48;100408.09;2084130;28;19912;-60
2021/10/27 03:20:40;;;;;;;;;;;;;;;17.85;62.51;100405.34;2077339;28;19920;-60
2021/10/27 03:21:40;;;;;;;;;;;;;;;17.84;62.32;100407.22;2081881;28;19955;-60
2021/10/27 03:22:41;;;;;;;;;;;;;;;17.83;62.32;100408.22;2080836;28;19982;-60
2021/10/27 03:23:41;;;;;;;;;;;;;;;17.85;62.26;100411.66;2078355;28;19970;-61
2021/10/27 03:24:41;;;;;;;;;;;;;;;17.84;62.61;100407.22;2082583;28;19916;-61
2021/10/27 03:25:42;;;;;;;;;;;;;;;17.84;62.35;100409.09;2074437;28;20273;-61
2021/10/27 03:26:43;;;;;;;;;;;;;;;17.83;62.27;100402.75;2075233;28;20387;-61
2021/10/27 03:27:43;;;;;;;;;;;;;;;17.84;62.44;100415.41;2081410;28;20678;-60
2021/10/27 03:28:43;;;;;;;;;;;;;;;17.84;62.44;100409.97;2083892;28;20968;-61
2021/10/27 03:29:44;;;;;;;;;;;;;;;17.83;62.49;100410.09;2083747;28;19989;-60
2021/10/27 03:30:44;;;;;;;;;;;;;;;17.83;62.28;100405.47;2079187;28;20792;-60
2021/10/27 03:31:44;;;;;;;;;;;;;;;17.83;62.30;100410.94;2073253;28;20883;-61
2021/10/27 03:32:45;;;;;;;;;;;;;;;17.83;62.39;100408.22;2074220;28;19917;-60
2021/10/27 03:33:45;;;;;;;;;;;;;;;17.82;62.42;100402.91;2084123;28;19916;-61
2021/10/27 03:34:48;;;;;;;;;;;;;;;17.82;62.40;100405.63;2082628;28;19917;-61
2021/10/27 03:35:49;;;;;;;;;;;;;;;17.82;62.22;100403.75;2084470;28;19916;-61
2021/10/27 03:36:50;;;;;;;;;;;;;;;17.83;62.28;100401.91;2085367;28;19908;-61
2021/10/27 03:37:50;;;;;;;;;;;;;;;17.83;62.36;100401.91;2077321;28;19917;-62
2021/10/27 03:38:50;;;;;;;;;;;;;;;17.82;62.38;100395.59;2073141;28;19936;-61
2021/10/27 03:39:51;;;;;;;;;;;;;;;17.82;62.47;100401.03;2081606;28;19974;-61
2021/10/27 03:40:52;;;;;;;;;;;;;;;17.83;62.48;100401.91;2081792;28;19916;-61
2021/10/27 03:41:52;;;;;;;;;;;;;;;17.82;62.29;100398.31;2083214;28;19947;-61
2021/10/27 03:42:52;;;;;;;;;;;;;;;17.81;62.26;100399.31;2083514;28;19998;-61
2021/10/27 03:43:53;;;;;;;;;;;;;;;17.82;62.19;100394.72;2084684;28;19962;-61
2021/10/27 03:44:53;;;;;;;;;;;;;;;17.81;62.21;100391.16;2082234;28;19971;-61
2021/10/27 03:45:53;;;;;;;;;;;;;;;17.81;62.46;100402.06;2085341;28;20333;-61
2021/10/27 03:46:54;;;;;;;;;;;;;;;17.81;62.30;100404.78;2073493;28;19931;-61
2021/10/27 03:47:54;;;;;;;;;;;;;;;17.82;62.41;100395.59;2075593;28;20437;-62
2021/10/27 03:48:54;;;;;;;;;;;;;;;17.81;62.14;100403.88;2075745;28;19916;-61
2021/10/27 03:49:55;;;;;;;;;;;;;;;17.80;62.18;100408.50;2073768;28;19991;-61
2021/10/27 03:50:55;;;;;;;;;;;;;;;17.80;62.31;100408.50;2084417;28;19920;-61
2021/10/27 03:51:56;;;;;;;;;;;;;;;17.80;62.44;100403.03;2073986;28;19909;-61
2021/10/27 03:52:57;;;;;;;;;;;;;;;17.81;62.24;100399.31;2064518;28;20303;-61
2021/10/27 03:53:57;;;;;;;;;;;;;;;17.80;62.16;100397.56;2076750;28;20014;-61
2021/10/27 03:54:57;;;;;;;;;;;;;;;17.80;62.24;100403.03;2079654;28;20440;-61
2021/10/27 03:55:58;;;;;;;;;;;;;;;17.80;62.37;100397.56;2084745;28;19916;-61
2021/10/27 03:56:58;;;;;;;;;;;;;;;17.80;62.26;100403.03;2081901;28;20287;-61
2021/10/27 03:57:59;;;;;;;;;;;;;;;17.81;62.23;100404.78;2084536;28;20365;-61
2021/10/27 03:58:59;;;;;;;;;;;;;;;17.80;62.09;100408.50;2083615;28;19908;-61
2021/10/27 03:59:59;;;;;;;;;;;;;;;17.80;62.31;100403.03;2082738;28;19916;-61
2021/10/27 04:01:00;;;;;;;;;;;;;;;17.79;62.32;100407.59;2084961;28;19908;-61
2021/10/27 04:02:01;;;;;;;;;;;;;;;17.79;62.37;100401.28;2082777;28;19916;-61
2021/10/27 04:03:01;;;;;;;;;;;;;;;17.79;62.36;100402.13;2082406;28;20773;-61
2021/10/27 04:04:02;;;;;;;;;;;;;;;17.79;62.22;100404.88;2085103;28;20389;-61
2021/10/27 04:05:02;;;;;;;;;;;;;;;17.79;62.38;100404.00;2083251;28;19916;-61
2021/10/27 04:06:02;;;;;;;;;;;;;;;17.79;62.33;100406.75;2085156;28;19924;-61
2021/10/27 04:07:03;;;;;;;;;;;;;;;17.79;62.15;100410.31;2083008;28;20165;-61
2021/10/27 04:08:04;;;;;;;;;;;;;;;17.78;62.10;100411.34;2077533;28;19925;-61
2021/10/27 04:09:04;;;;;;;;;;;;;;;17.79;62.26;100407.59;2085003;28;19912;-61
2021/10/27 04:10:06;;;;;;;;;;;;;;;17.79;62.34;100406.75;2082009;28;19930;-61
2021/10/27 04:11:06;;;;;;;;;;;;;;;17.79;62.03;100409.47;2086506;28;20912;-61
2021/10/27 04:12:07;;;;;;;;;;;;;;;17.78;62.13;100400.44;2073854;28;20357;-61
2021/10/27 04:13:07;;;;;;;;;;;;;;;17.79;62.01;100404.00;2070833;28;20360;-61
2021/10/27 04:14:08;;;;;;;;;;;;;;;17.78;62.06;100400.44;2084246;28;19970;-61
2021/10/27 04:15:09;;;;;;;;;;;;;;;17.79;62.29;100401.28;2082959;28;20552;-61
2021/10/27 04:16:10;;;;;;;;;;;;;;;17.78;62.01;100400.44;2078800;28;19918;-61
2021/10/27 04:17:10;;;;;;;;;;;;;;;17.79;62.19;100406.75;2078889;28;19920;-61
2021/10/27 04:18:11;;;;;;;;;;;;;;;17.78;61.95;100400.44;2073268;28;20598;-61
2021/10/27 04:19:11;;;;;;;;;;;;;;;17.79;61.98;100409.47;2073764;28;19940;-61
2021/10/27 04:20:11;;;;;;;;;;;;;;;17.78;61.95;100402.25;2082653;28;19970;-61
2021/10/27 04:21:11;;;;;;;;;;;;;;;17.77;62.11;100398.69;2079850;28;19917;-61
2021/10/27 04:22:12;;;;;;;;;;;;;;;17.78;62.19;100394.09;2079984;28;19916;-61
2021/10/27 04:23:12;;;;;;;;;;;;;;;17.78;62.11;100394.09;2083469;28;19923;-61
2021/10/27 04:24:13;;;;;;;;;;;;;;;17.77;62.03;100386.91;2083166;28;19940;-61
2021/10/27 04:25:13;;;;;;;;;;;;;;;17.78;61.91;100394.09;2085526;28;19916;-61
2021/10/27 04:26:13;;;;;;;;;;;;;;;17.77;62.16;100389.66;2082801;28;20600;-61
2021/10/27 04:27:14;;;;;;;;;;;;;;;17.78;62.10;100385.91;2082500;28;19993;-61
2021/10/27 04:28:14;;;;;;;;;;;;;;;17.77;61.98;100395.09;2083173;28;19917;-61
2021/10/27 04:29:15;;;;;;;;;;;;;;;17.76;62.20;100388.78;2084336;28;19936;-61
2021/10/27 04:30:15;;;;;;;;;;;;;;;17.76;62.17;100390.63;2082838;28;19920;-61
2021/10/27 04:31:15;;;;;;;;;;;;;;;17.78;61.85;100394.09;2083236;28;19924;-61
2021/10/27 04:32:16;;;;;;;;;;;;;;;17.77;62.03;100393.22;2083524;28;19999;-61
2021/10/27 04:33:23;;;;;;;;;;;;;;;17.77;61.84;100395.94;2083057;28;20117;-61
2021/10/27 04:34:23;;;;;;;;;;;;;;;17.77;61.86;100389.66;2074270;28;19912;-61
2021/10/27 04:35:25;;;;;;;;;;;;;;;17.77;62.05;100389.66;2075212;28;19909;-61
2021/10/27 04:36:26;;;;;;;;;;;;;;;17.77;62.10;100386.91;2071114;28;19920;-61
2021/10/27 04:37:27;;;;;;;;;;;;;;;17.76;61.88;100386.06;2075930;28;19916;-61
2021/10/27 04:38:27;;;;;;;;;;;;;;;17.76;62.05;100390.63;2079073;28;20306;-61
2021/10/27 04:39:28;;;;;;;;;;;;;;;17.77;61.79;100387.78;2084300;28;19938;-61
2021/10/27 04:40:28;;;;;;;;;;;;;;;17.77;61.87;100389.66;2081234;28;19916;-61
2021/10/27 04:41:28;;;;;;;;;;;;;;;17.76;61.88;100396.06;2084968;28;19969;-61
2021/10/27 04:42:28;;;;;;;;;;;;;;;17.76;61.89;100393.34;2083345;28;19917;-61
2021/10/27 04:43:29;;;;;;;;;;;;;;;17.76;61.80;100393.34;2078237;28;20279;-61
2021/10/27 04:44:29;;;;;;;;;;;;;;;17.75;61.93;100389.75;2081478;28;19916;-61
2021/10/27 04:45:31;;;;;;;;;;;;;;;17.76;61.72;100387.91;2070924;28;20041;-61
2021/10/27 04:46:31;;;;;;;;;;;;;;;17.76;61.85;100390.63;2072098;28;20742;-61
2021/10/27 04:47:32;;;;;;;;;;;;;;;17.75;61.86;100392.50;2084701;28;20903;-61
2021/10/27 04:48:32;;;;;;;;;;;;;;;17.76;61.90;100390.63;2084119;28;20869;-61
2021/10/27 04:49:32;;;;;;;;;;;;;;;17.76;61.88;100394.25;2078997;28;20535;-61
2021/10/27 04:50:33;;;;;;;;;;;;;;;17.75;61.92;100395.22;2085647;28;19948;-61
2021/10/27 04:51:33;;;;;;;;;;;;;;;17.75;61.72;100388.91;2082111;28;19952;-61
2021/10/27 04:52:34;;;;;;;;;;;;;;;17.74;61.84;100390.78;2086510;28;19916;-61
2021/10/27 04:53:34;;;;;;;;;;;;;;;17.75;61.84;100389.75;2081166;28;19923;-61
2021/10/27 04:54:34;;;;;;;;;;;;;;;17.76;61.87;100390.63;2083021;28;19920;-61
2021/10/27 04:55:35;;;;;;;;;;;;;;;17.75;61.87;100388.91;2084725;28;19916;-61
2021/10/27 04:56:35;;;;;;;;;;;;;;;17.74;61.78;100377.16;2080987;28;19917;-61
2021/10/27 04:57:36;;;;;;;;;;;;;;;17.74;61.74;100384.47;2086274;28;20347;-61
2021/10/27 04:58:36;;;;;;;;;;;;;;;17.75;61.79;100391.63;2083280;28;20375;-61
2021/10/27 04:59:41;;;;;;;;;;;;;;;17.74;61.87;100389.91;2083669;28;19917;-61
2021/10/27 05:00:41;;;;;;;;;;;;;;;17.74;61.97;100381.75;2077566;28;20242;-61
2021/10/27 05:01:51;;;;;;;;;;;;;;;17.74;61.68;100381.75;2083392;28;20128;-61
2021/10/27 05:02:51;;;;;;;;;;;;;;;17.73;61.86;100385.44;2084340;28;19995;-61
2021/10/27 05:03:51;;;;;;;;;;;;;;;17.74;62.04;100387.19;2086506;28;19917;-61
2021/10/27 05:04:52;;;;;;;;;;;;;;;17.73;61.80;100385.44;2082145;28;19916;-61
2021/10/27 05:05:56;;;;;;;;;;;;;;;17.74;62.04;100384.47;2085801;28;20341;-61
2021/10/27 05:06:56;;;;;;;;;;;;;;;17.73;61.86;100388.16;2083946;28;19964;-61
2021/10/27 05:07:59;;;;;;;;;;;;;;;17.73;61.80;100390.91;2079178;28;20168;-61
2021/10/27 05:09:00;;;;;;;;;;;;;;;17.73;62.00;100390.91;2083370;28;19916;-62
2021/10/27 05:10:00;;;;;;;;;;;;;;;17.72;61.96;100387.31;2080757;28;19968;-61
2021/10/27 05:11:01;;;;;;;;;;;;;;;17.73;61.92;100388.16;2080316;28;20083;-61